createdAt,value
2022-12-29T00:01:41.348Z,145638.56
2022-12-29T00:04:12.982Z,145627.59
2022-12-29T00:06:42.261Z,145616.69
2022-12-29T00:09:09.453Z,145619.06
2022-12-29T00:11:36.281Z,145623.94
2022-12-29T00:14:26.025Z,145613.03
2022-12-29T00:16:53.243Z,145638.56
2022-12-29T00:19:38.792Z,145651.88
2022-12-29T00:22:24.482Z,145678.59
2022-12-29T00:24:54.237Z,145679.84
2022-12-29T00:27:40.187Z,145690.78
2022-12-29T00:30:30.943Z,145705.41
2022-12-29T00:33:16.578Z,145711.50
2022-12-29T00:35:56.845Z,145721.22
2022-12-29T00:38:42.421Z,145706.59
2022-12-29T00:41:28.293Z,145695.63
2022-12-29T00:44:07.526Z,145712.72
2022-12-29T00:46:35.207Z,145711.50
2022-12-29T00:49:20.826Z,145701.75
2022-12-29T00:51:48.090Z,145694.44
2022-12-29T00:54:15.654Z,145682.25
2022-12-29T00:56:42.504Z,145681.06
2022-12-29T00:59:10.540Z,145693.22
2022-12-29T01:01:38.286Z,145706.59
2022-12-29T01:04:05.404Z,145715.13
2022-12-29T01:06:33.152Z,145724.84
2022-12-29T01:09:18.933Z,145733.34
2022-12-29T01:11:45.774Z,145735.78
2022-12-29T01:14:12.586Z,145740.66
2022-12-29T01:16:39.461Z,145738.19
2022-12-29T01:19:06.339Z,145744.31
2022-12-29T01:21:34.183Z,145734.59
2022-12-29T01:24:00.986Z,145723.63
2022-12-29T01:26:27.876Z,145755.22
2022-12-29T01:28:54.698Z,145747.97
2022-12-29T01:31:21.912Z,145749.16
2022-12-29T01:33:48.849Z,145754.03
2022-12-29T01:36:17.117Z,145747.97
2022-12-29T01:38:44.408Z,145758.88
2022-12-29T01:41:12.506Z,145771.06
2022-12-29T01:43:40.390Z,145756.44
2022-12-29T01:46:14.708Z,145769.81
2022-12-29T01:48:42.489Z,145769.81
2022-12-29T01:51:09.801Z,145761.28
2022-12-29T01:53:37.085Z,145752.81
2022-12-29T01:56:08.229Z,145767.41
2022-12-29T01:58:38.815Z,145784.38
2022-12-29T02:01:05.941Z,145789.28
2022-12-29T02:03:33.660Z,145780.78
2022-12-29T02:06:09.333Z,145794.16
2022-12-29T02:08:38.746Z,145779.53
2022-12-29T02:11:06.259Z,145774.66
2022-12-29T02:13:34.591Z,145767.41
2022-12-29T02:16:10.444Z,145728.50
2022-12-29T02:18:57.359Z,145713.91
2022-12-29T02:21:42.774Z,145696.84
2022-12-29T02:24:12.610Z,145694.44
2022-12-29T02:26:39.411Z,145705.41
2022-12-29T02:29:27.258Z,145713.91
2022-12-29T02:32:03.987Z,145730.94
2022-12-29T02:34:36.552Z,145745.50
2022-12-29T02:37:09.192Z,145750.38
2022-12-29T02:39:41.886Z,145757.69
2022-12-29T02:42:22.142Z,145747.97
2022-12-29T02:45:07.882Z,145755.22
2022-12-29T02:47:40.909Z,145769.81
2022-12-29T02:50:08.561Z,145777.13
2022-12-29T02:52:38.520Z,145730.94
2022-12-29T02:55:05.610Z,145707.84
2022-12-29T02:57:34.352Z,145728.50
2022-12-29T03:00:05.003Z,145704.19
2022-12-29T03:02:46.008Z,145696.84
2022-12-29T03:05:13.134Z,145670.09
2022-12-29T03:07:49.160Z,145687.13
2022-12-29T03:10:40.295Z,145640.97
2022-12-29T03:13:32.386Z,145640.97
2022-12-29T03:16:05.314Z,145668.91
2022-12-29T03:18:37.845Z,145659.19
2022-12-29T03:21:11.849Z,145665.25
2022-12-29T03:23:41.437Z,145665.25
2022-12-29T03:26:11.242Z,145654.31
2022-12-29T03:28:47.065Z,145672.56
2022-12-29T03:31:19.990Z,145677.41
2022-12-29T03:33:49.461Z,145662.84
2022-12-29T03:36:31.587Z,145685.91
2022-12-29T03:39:02.146Z,145660.38
2022-12-29T03:41:31.891Z,145689.56
2022-12-29T03:44:00.694Z,145672.56
2022-12-29T03:46:28.218Z,145684.72
2022-12-29T03:48:55.230Z,145683.47
2022-12-29T03:51:22.096Z,145691.97
2022-12-29T03:53:49.480Z,145711.50
2022-12-29T03:56:16.495Z,145704.19
2022-12-29T03:58:45.495Z,145700.53
2022-12-29T04:01:17.610Z,145682.25
2022-12-29T04:03:45.357Z,145675.00
2022-12-29T04:06:12.681Z,145679.84
2022-12-29T04:08:47.644Z,145677.41
2022-12-29T04:11:14.609Z,145676.19
2022-12-29T04:13:42.445Z,145685.91
2022-12-29T04:16:11.639Z,145694.44
2022-12-29T04:18:38.646Z,145703.00
2022-12-29T04:21:07.526Z,145698.09
2022-12-29T04:23:37.603Z,145709.06
2022-12-29T04:26:08.450Z,145699.34
2022-12-29T04:28:39.324Z,145672.56
2022-12-29T04:31:26.561Z,145684.72
2022-12-29T04:33:53.501Z,145684.72
2022-12-29T04:36:25.348Z,145691.97
2022-12-29T04:38:56.603Z,145691.97
2022-12-29T04:41:23.626Z,145695.63
2022-12-29T04:43:50.724Z,145564.41
2022-12-29T04:46:55.862Z,145727.28
2022-12-29T04:49:42.981Z,145726.09
2022-12-29T04:52:39.084Z,145715.13
2022-12-29T04:55:08.842Z,145728.50
2022-12-29T04:57:35.897Z,145713.91
2022-12-29T05:00:03.774Z,145715.13
2022-12-29T05:02:30.884Z,145677.41
2022-12-29T05:04:57.935Z,145710.25
2022-12-29T05:07:26.051Z,145711.50
2022-12-29T05:09:53.954Z,145710.25
2022-12-29T05:12:20.829Z,145705.41
2022-12-29T05:14:59.623Z,145723.63
2022-12-29T05:17:26.826Z,145727.28
2022-12-29T05:19:53.915Z,145703.00
2022-12-29T05:22:21.102Z,145717.56
2022-12-29T05:24:47.991Z,145726.09
2022-12-29T05:27:15.527Z,145723.63
2022-12-29T05:29:50.019Z,145713.91
2022-12-29T05:32:16.933Z,145722.44
2022-12-29T05:34:45.915Z,145722.44
2022-12-29T05:37:13.051Z,145703.00
2022-12-29T05:39:41.343Z,145676.19
2022-12-29T05:42:09.235Z,145661.63
2022-12-29T05:44:54.925Z,145621.53
2022-12-29T05:47:40.504Z,145632.44
2022-12-29T05:50:25.978Z,145604.50
2022-12-29T05:53:19.520Z,145594.78
2022-12-29T05:55:50.026Z,145560.75
2022-12-29T05:58:18.023Z,145554.69
2022-12-29T06:00:45.068Z,145562.00
2022-12-29T06:03:12.642Z,145548.66
2022-12-29T06:05:39.681Z,145543.78
2022-12-29T06:08:07.006Z,145553.50
2022-12-29T06:10:34.575Z,145536.47
2022-12-29T06:13:06.748Z,145548.66
2022-12-29T06:15:37.018Z,145558.34
2022-12-29T06:18:06.604Z,145585.09
2022-12-29T06:20:34.732Z,145594.78
2022-12-29T06:23:04.694Z,145589.94
2022-12-29T06:25:33.196Z,145585.09
2022-12-29T06:28:00.218Z,145608.16
2022-12-29T06:30:27.426Z,145602.09
2022-12-29T06:32:55.161Z,145636.09
2022-12-29T06:35:23.424Z,145628.78
2022-12-29T06:37:51.882Z,145628.78
2022-12-29T06:40:20.537Z,145623.94
2022-12-29T06:43:07.130Z,145621.53
2022-12-29T06:45:53.011Z,145631.25
2022-12-29T06:48:19.863Z,145623.94
2022-12-29T06:50:46.675Z,145604.50
2022-12-29T06:53:13.568Z,145587.50
2022-12-29T06:55:42.043Z,145609.38
2022-12-29T06:58:09.079Z,145614.22
2022-12-29T07:00:35.992Z,145581.44
2022-12-29T07:03:03.011Z,145587.50
2022-12-29T07:05:32.386Z,145434.47
2022-12-29T07:07:59.728Z,145619.06
2022-12-29T07:10:26.639Z,145633.66
2022-12-29T07:12:53.634Z,145630.03
2022-12-29T07:15:20.554Z,145623.94
2022-12-29T07:17:47.454Z,145637.31
2022-12-29T07:20:14.292Z,145632.44
2022-12-29T07:22:41.214Z,145639.75
2022-12-29T07:25:08.326Z,145626.38
2022-12-29T07:27:35.165Z,145611.81
2022-12-29T07:30:01.980Z,145580.22
2022-12-29T07:32:29.130Z,145589.94
2022-12-29T07:34:55.980Z,145581.44
2022-12-29T07:37:22.897Z,145587.50
2022-12-29T07:39:49.771Z,145585.09
2022-12-29T07:42:16.587Z,145568.06
2022-12-29T07:44:50.597Z,145568.06
2022-12-29T07:47:36.070Z,145585.09
2022-12-29T07:50:03.012Z,145603.31
2022-12-29T07:52:29.866Z,145611.81
2022-12-29T07:54:56.765Z,145608.16
2022-12-29T07:57:29.674Z,145597.19
2022-12-29T07:59:58.616Z,145582.63
2022-12-29T08:02:27.147Z,145596.00
2022-12-29T08:04:54.215Z,145605.72
2022-12-29T08:07:21.282Z,145596.00
2022-12-29T08:09:48.128Z,145592.34
2022-12-29T08:12:14.944Z,145589.94
2022-12-29T08:14:42.027Z,145582.63
2022-12-29T08:17:08.932Z,145593.59
2022-12-29T08:19:35.790Z,145599.66
2022-12-29T08:22:02.829Z,145583.88
2022-12-29T08:24:29.732Z,145587.50
2022-12-29T08:26:56.535Z,145597.19
2022-12-29T08:29:23.748Z,145589.94
2022-12-29T08:31:50.610Z,145594.78
2022-12-29T08:34:17.513Z,145626.38
2022-12-29T08:36:44.309Z,145603.31
2022-12-29T08:39:11.225Z,145571.72
2022-12-29T08:41:38.113Z,145604.50
2022-12-29T08:44:05.028Z,145621.53
2022-12-29T08:46:31.889Z,145655.53
2022-12-29T08:48:58.867Z,145657.97
2022-12-29T08:51:25.771Z,145679.84
2022-12-29T08:53:53.034Z,145677.41
2022-12-29T08:56:19.907Z,145690.78
2022-12-29T08:58:51.192Z,145703.00
2022-12-29T09:01:19.817Z,145672.56
2022-12-29T09:06:39.977Z,145730.94
2022-12-29T09:09:07.235Z,145711.50
2022-12-29T09:11:34.184Z,145723.63
2022-12-29T09:14:01.249Z,145703.00
2022-12-29T09:16:28.281Z,145678.59
2022-12-29T09:18:55.160Z,145684.72
2022-12-29T09:21:22.127Z,145695.63
2022-12-29T09:23:49.409Z,145679.84
2022-12-29T09:26:16.308Z,145695.63
2022-12-29T09:28:43.315Z,145529.22
2022-12-29T09:31:10.173Z,145690.78
2022-12-29T09:33:37.101Z,145682.25
2022-12-29T09:36:04.062Z,145710.25
2022-12-29T09:38:31.677Z,145721.22
2022-12-29T09:41:22.018Z,145715.13
2022-12-29T09:43:48.829Z,145687.13
2022-12-29T09:46:24.567Z,145704.19
2022-12-29T09:48:54.200Z,145672.56
2022-12-29T09:51:23.306Z,145687.13
2022-12-29T09:53:57.507Z,145689.56
2022-12-29T09:56:25.708Z,145660.38
2022-12-29T09:59:14.226Z,145643.41
2022-12-29T10:01:47.587Z,145655.53
2022-12-29T10:04:14.545Z,145666.50
2022-12-29T10:07:11.388Z,145665.25
2022-12-29T10:09:31.207Z,145691.97
2022-12-29T10:12:20.073Z,145682.25
2022-12-29T10:14:56.000Z,145694.44
2022-12-29T10:17:28.604Z,145670.09
2022-12-29T10:20:07.160Z,145696.84
2022-12-29T10:22:52.501Z,145666.50
2022-12-29T10:25:20.208Z,145672.56
2022-12-29T10:27:51.215Z,145660.38
2022-12-29T10:30:18.267Z,145676.19
2022-12-29T10:33:06.448Z,145677.41
2022-12-29T10:35:39.947Z,145687.13
2022-12-29T10:38:15.741Z,145694.44
2022-12-29T10:40:44.201Z,145721.22
2022-12-29T10:43:21.291Z,145745.50
2022-12-29T10:45:48.706Z,145755.22
2022-12-29T10:48:28.508Z,145767.41
2022-12-29T10:51:01.985Z,145773.47
2022-12-29T10:53:50.590Z,145757.69
2022-12-29T10:56:30.410Z,145812.38
2022-12-29T10:59:00.700Z,145795.34
2022-12-29T11:01:32.128Z,145781.97
2022-12-29T11:04:04.869Z,145777.13
2022-12-29T11:06:32.985Z,145755.22
2022-12-29T11:09:03.139Z,145771.06
2022-12-29T11:11:34.735Z,145795.34
2022-12-29T11:14:30.591Z,145808.72
2022-12-29T11:17:04.665Z,145803.88
2022-12-29T11:19:37.656Z,145820.84
2022-12-29T11:22:34.925Z,145811.13
2022-12-29T11:25:07.124Z,145794.16
2022-12-29T11:27:34.004Z,145794.16
2022-12-29T11:30:00.892Z,145743.06
2022-12-29T11:32:30.575Z,145784.38
2022-12-29T11:34:58.665Z,145781.97
2022-12-29T11:37:25.544Z,145755.22
2022-12-29T11:40:00.627Z,145750.38
2022-12-29T11:42:49.642Z,145733.34
2022-12-29T11:45:16.518Z,145743.06
2022-12-29T11:47:47.917Z,145750.38
2022-12-29T11:50:19.323Z,145766.16
2022-12-29T11:52:47.065Z,145764.94
2022-12-29T11:55:25.489Z,145752.81
2022-12-29T11:57:53.542Z,145777.13
2022-12-29T12:00:22.433Z,145808.72
2022-12-29T12:02:55.311Z,145809.94
2022-12-29T12:05:24.643Z,145811.13
2022-12-29T12:08:03.890Z,145796.56
2022-12-29T12:10:33.851Z,145822.09
2022-12-29T12:13:11.494Z,145817.25
2022-12-29T12:15:47.498Z,145816.00
2022-12-29T12:18:19.478Z,145836.69
2022-12-29T12:20:52.818Z,145828.16
2022-12-29T12:23:26.497Z,145839.09
2022-12-29T12:26:02.630Z,145854.91
2022-12-29T12:28:42.922Z,145842.75
2022-12-29T12:31:28.807Z,145850.06
2022-12-29T12:34:00.026Z,145841.53
2022-12-29T12:36:48.632Z,145871.94
2022-12-29T12:39:40.443Z,145842.75
2022-12-29T12:42:16.861Z,145830.63
2022-12-29T12:44:56.196Z,145813.59
2022-12-29T12:47:33.678Z,145823.31
2022-12-29T12:50:14.641Z,145825.75
2022-12-29T12:52:50.468Z,145801.41
2022-12-29T12:55:35.577Z,145784.38
2022-12-29T12:58:02.387Z,145795.34
2022-12-29T13:00:34.556Z,145802.63
2022-12-29T13:03:07.809Z,145813.59
2022-12-29T13:05:55.083Z,145799.00
2022-12-29T13:08:24.693Z,145807.53
2022-12-29T13:10:54.649Z,145796.56
2022-12-29T13:13:27.646Z,145799.00
2022-12-29T13:16:03.817Z,145791.69
2022-12-29T13:18:43.029Z,145757.69
2022-12-29T13:21:12.944Z,145758.88
2022-12-29T13:23:39.837Z,145745.50
2022-12-29T13:26:12.837Z,145733.34
2022-12-29T13:28:53.946Z,145757.69
2022-12-29T13:31:39.742Z,145740.66
2022-12-29T13:34:14.365Z,145755.22
2022-12-29T13:36:50.510Z,145741.84
2022-12-29T13:39:38.048Z,145761.28
2022-12-29T13:42:06.178Z,145755.22
2022-12-29T13:44:38.314Z,145758.88
2022-12-29T13:47:20.155Z,145729.75
2022-12-29T13:49:47.787Z,145738.19
2022-12-29T13:52:29.855Z,145745.50
2022-12-29T13:55:16.925Z,145733.34
2022-12-29T13:57:49.037Z,145740.66
2022-12-29T14:00:15.854Z,145730.94
2022-12-29T14:02:45.986Z,145730.94
2022-12-29T14:05:33.173Z,145735.78
2022-12-29T14:08:01.818Z,145716.38
2022-12-29T14:10:36.055Z,145687.13
2022-12-29T14:13:05.364Z,145711.50
2022-12-29T14:15:32.336Z,145699.34
2022-12-29T14:18:18.974Z,145683.47
2022-12-29T14:20:48.845Z,145681.06
2022-12-29T14:23:17.708Z,145675.00
2022-12-29T14:25:56.823Z,145687.13
2022-12-29T14:28:28.208Z,145690.78
2022-12-29T14:30:56.176Z,145688.31
2022-12-29T14:33:24.586Z,145677.41
2022-12-29T14:35:53.097Z,145691.97
2022-12-29T14:38:24.784Z,145679.84
2022-12-29T14:40:52.181Z,145701.75
2022-12-29T14:43:28.450Z,145675.00
2022-12-29T14:45:58.421Z,145668.91
2022-12-29T14:48:25.316Z,145696.84
2022-12-29T14:50:52.249Z,145716.38
2022-12-29T14:53:37.859Z,145706.59
2022-12-29T14:56:04.888Z,145678.59
2022-12-29T14:58:36.792Z,145633.66
2022-12-29T15:01:03.688Z,145580.22
2022-12-29T15:03:37.265Z,145514.59
2022-12-29T15:06:12.324Z,145527.97
2022-12-29T15:09:05.365Z,145514.59
2022-12-29T15:11:41.061Z,145537.69
2022-12-29T15:14:26.391Z,145517.06
2022-12-29T15:16:54.376Z,145543.78
2022-12-29T15:19:24.688Z,145538.94
2022-12-29T15:21:51.836Z,145552.28
2022-12-29T15:24:18.805Z,145537.69
2022-12-29T15:26:50.393Z,145518.25
2022-12-29T15:29:39.967Z,145520.72
2022-12-29T15:32:17.855Z,145525.56
2022-12-29T15:34:45.428Z,145553.50
2022-12-29T15:37:23.613Z,145565.66
2022-12-29T15:39:50.984Z,145553.50
2022-12-29T15:42:32.912Z,145555.91
2022-12-29T15:45:10.340Z,145560.75
2022-12-29T15:47:38.821Z,145572.91
2022-12-29T15:50:24.643Z,145560.75
2022-12-29T15:52:51.868Z,145575.38
2022-12-29T15:55:33.574Z,145588.75
2022-12-29T15:58:01.526Z,145594.78
2022-12-29T16:00:29.906Z,145587.50
2022-12-29T16:02:58.094Z,145597.19
2022-12-29T16:05:25.132Z,145558.34
2022-12-29T16:07:56.295Z,145587.50
2022-12-29T16:10:26.457Z,145591.13
2022-12-29T16:12:53.664Z,145581.44
2022-12-29T16:15:20.711Z,145574.13
2022-12-29T16:17:49.154Z,145599.66
2022-12-29T16:20:21.414Z,145599.66
2022-12-29T16:22:55.561Z,145604.50
2022-12-29T16:25:33.139Z,145602.09
2022-12-29T16:28:00.736Z,145555.91
2022-12-29T16:30:33.131Z,145484.28
2022-12-29T16:33:05.235Z,145422.31
2022-12-29T16:35:48.583Z,145351.94
2022-12-29T16:38:22.557Z,145366.50
2022-12-29T16:40:53.259Z,145351.94
2022-12-29T16:43:24.668Z,145331.28
2022-12-29T16:45:51.474Z,145283.97
2022-12-29T16:48:22.636Z,145265.75
2022-12-29T16:50:49.733Z,145269.34
2022-12-29T16:53:22.571Z,145262.09
2022-12-29T16:55:50.429Z,145288.81
2022-12-29T16:58:19.539Z,145297.31
2022-12-29T17:00:47.497Z,145274.25
2022-12-29T17:03:16.380Z,145276.66
2022-12-29T17:05:54.171Z,145308.22
2022-12-29T17:08:25.328Z,145327.63
2022-12-29T17:11:12.533Z,145319.13
2022-12-29T17:13:40.029Z,145333.72
2022-12-29T17:16:08.341Z,145357.97
2022-12-29T17:18:35.844Z,145396.81
2022-12-29T17:21:06.990Z,145378.59
2022-12-29T17:23:36.166Z,145404.13
2022-12-29T17:26:03.156Z,145378.59
2022-12-29T17:28:31.814Z,145362.84
2022-12-29T17:31:03.307Z,145333.72
2022-12-29T17:33:35.111Z,145354.34
2022-12-29T17:36:01.964Z,145344.63
2022-12-29T17:38:32.177Z,145339.78
2022-12-29T17:40:59.518Z,145365.28
2022-12-29T17:43:32.860Z,145390.75
2022-12-29T17:46:05.287Z,145398.06
2022-12-29T17:48:32.150Z,145417.47
2022-12-29T17:50:59.579Z,145402.91
2022-12-29T17:53:28.474Z,145401.72
2022-12-29T17:55:55.354Z,145388.34
2022-12-29T17:58:23.653Z,145368.91
2022-12-29T18:00:52.294Z,145370.16
2022-12-29T18:03:25.717Z,145388.34
2022-12-29T18:05:52.667Z,145317.91
2022-12-29T18:08:19.507Z,145304.56
2022-12-29T18:10:46.630Z,145296.06
2022-12-29T18:13:21.909Z,145286.34
2022-12-29T18:15:49.011Z,145265.75
2022-12-29T18:18:17.657Z,145254.78
2022-12-29T18:21:22.799Z,145262.09
2022-12-29T18:23:49.909Z,145264.50
2022-12-29T18:26:25.665Z,145266.94
2022-12-29T18:29:26.020Z,145275.44
2022-12-29T18:31:52.920Z,145266.94
2022-12-29T18:34:19.807Z,145249.91
2022-12-29T18:36:46.676Z,145279.09
2022-12-29T18:39:13.985Z,145259.66
2022-12-29T18:41:40.885Z,145308.22
2022-12-29T18:44:11.509Z,145288.81
2022-12-29T18:46:38.406Z,145276.66
2022-12-29T18:49:05.192Z,145300.91
2022-12-29T18:51:32.017Z,145310.66
2022-12-29T18:54:00.718Z,145277.84
2022-12-29T18:56:27.567Z,145266.94
2022-12-29T18:59:00.318Z,145245.06
2022-12-29T19:01:27.919Z,145201.41
2022-12-29T19:03:55.179Z,145180.75
2022-12-29T19:06:22.222Z,145173.44
2022-12-29T19:08:49.371Z,145156.50
2022-12-29T19:11:17.705Z,145150.41
2022-12-29T19:13:44.582Z,145157.69
2022-12-29T19:16:17.153Z,145132.19
2022-12-29T19:18:47.398Z,145112.81
2022-12-29T19:21:19.895Z,145162.53
2022-12-29T19:23:46.805Z,145167.41
2022-12-29T19:26:30.338Z,145201.41
2022-12-29T19:28:57.408Z,145172.25
2022-12-29T19:31:24.705Z,145144.34
2022-12-29T19:33:51.716Z,145186.78
2022-12-29T19:36:18.926Z,145165.00
2022-12-29T19:38:46.323Z,145168.59
2022-12-29T19:41:14.548Z,145189.25
2022-12-29T19:43:41.450Z,145209.84
2022-12-29T19:46:09.632Z,145215.94
2022-12-29T19:48:37.561Z,145228.06
2022-12-29T19:51:09.076Z,145234.16
2022-12-29T19:53:36.628Z,145223.19
2022-12-29T19:56:04.839Z,145230.50
2022-12-29T19:58:32.923Z,145211.09
2022-12-29T20:01:07.539Z,145225.66
2022-12-29T20:03:34.941Z,145197.75
2022-12-29T20:06:01.995Z,145232.91
2022-12-29T20:08:28.840Z,145231.69
2022-12-29T20:10:58.776Z,145245.06
2022-12-29T20:13:25.878Z,145237.81
2022-12-29T20:15:57.128Z,145274.25
2022-12-29T20:18:28.872Z,145286.34
2022-12-29T20:21:04.028Z,145280.31
2022-12-29T20:23:31.135Z,145288.81
2022-12-29T20:25:58.286Z,145271.81
2022-12-29T20:28:27.118Z,145271.81
2022-12-29T20:30:55.350Z,145263.31
2022-12-29T20:33:22.252Z,145248.69
2022-12-29T20:35:49.339Z,145266.94
2022-12-29T20:38:16.226Z,145283.97
2022-12-29T20:40:46.585Z,145266.94
2022-12-29T20:43:14.634Z,145268.16
2022-12-29T20:45:41.583Z,145285.16
2022-12-29T20:48:08.547Z,145280.31
2022-12-29T20:50:35.560Z,145249.91
2022-12-29T20:53:02.523Z,145257.25
2022-12-29T20:55:29.377Z,145240.19
2022-12-29T21:00:43.188Z,145208.66
2022-12-29T21:03:10.391Z,145211.09
2022-12-29T21:05:37.934Z,145230.50
2022-12-29T21:08:05.250Z,145229.28
2022-12-29T21:10:33.311Z,145206.25
2022-12-29T21:13:01.509Z,145137.06
2022-12-29T21:15:29.894Z,145223.19
2022-12-29T21:17:56.916Z,145215.94
2022-12-29T21:20:30.201Z,145206.25
2022-12-29T21:23:01.326Z,145189.25
2022-12-29T21:25:36.840Z,145191.66
2022-12-29T21:28:07.784Z,145155.25
2022-12-29T21:30:34.713Z,145145.56
2022-12-29T21:33:01.609Z,145123.69
2022-12-29T21:35:28.848Z,145104.31
2022-12-29T21:37:55.857Z,145101.91
2022-12-29T21:40:22.731Z,145089.75
2022-12-29T21:42:49.636Z,145027.88
2022-12-29T21:45:25.555Z,145036.38
2022-12-29T21:48:11.808Z,145018.19
2022-12-29T21:50:59.159Z,145021.84
2022-12-29T21:53:37.850Z,145009.69
2022-12-29T21:56:09.228Z,145033.97
2022-12-29T21:58:55.656Z,145026.69
2022-12-29T22:01:42.094Z,145026.69
2022-12-29T22:04:30.118Z,144974.56
2022-12-29T22:07:15.927Z,144991.50
2022-12-29T22:10:01.498Z,144983.06
2022-12-29T22:12:48.104Z,144992.75
2022-12-29T22:15:14.991Z,144992.75
2022-12-29T22:17:49.264Z,144934.53
2022-12-29T22:20:17.197Z,144929.69
2022-12-29T22:22:44.202Z,144975.75
2022-12-29T22:25:11.023Z,144963.63
2022-12-29T22:27:37.921Z,144991.50
2022-12-29T22:30:05.677Z,144997.59
2022-12-29T22:32:33.164Z,145003.66
2022-12-29T22:35:04.082Z,144968.47
2022-12-29T22:37:34.678Z,144981.81
2022-12-29T22:40:01.543Z,144912.72
2022-12-29T22:42:28.386Z,144959.97
2022-12-29T22:44:55.210Z,144985.47
2022-12-29T22:47:22.557Z,145004.84
2022-12-29T22:49:49.399Z,145014.53
2022-12-29T22:52:16.275Z,145017.00
2022-12-29T22:54:43.125Z,145024.28
2022-12-29T22:57:10.090Z,145001.25
2022-12-29T22:59:37.007Z,144986.66
2022-12-29T23:02:03.927Z,144944.22
2022-12-29T23:07:17.782Z,144938.19
2022-12-29T23:09:44.647Z,144917.56
2022-12-29T23:12:11.469Z,144915.16
2022-12-29T23:14:38.754Z,144886.03
2022-12-29T23:17:05.756Z,144873.94
2022-12-29T23:19:32.571Z,144892.13
2022-12-29T23:21:59.381Z,144871.50
2022-12-29T23:24:26.225Z,144875.16
2022-12-29T23:26:53.051Z,144825.44
2022-12-29T23:29:20.136Z,144831.50
2022-12-29T23:31:47.393Z,144665.47
2022-12-29T23:34:15.500Z,144852.13
2022-12-29T23:36:42.770Z,144859.34
2022-12-29T23:39:10.611Z,144808.47
2022-12-29T23:41:37.475Z,144785.44
2022-12-29T23:44:04.325Z,144818.16
2022-12-29T23:46:31.369Z,144808.47
2022-12-29T23:48:58.765Z,144829.09
2022-12-29T23:51:26.162Z,144813.31
2022-12-29T23:53:53.075Z,144813.31
2022-12-29T23:56:21.928Z,144807.25
2022-12-29T23:58:49.410Z,144818.16
